sensor_id;sensor_type;location;lat;lon;timestamp;P1;durP1;ratioP1;P2;durP2;ratioP2
65855;SDS011;52631;42.208;24.656;2023-05-10T00:02:18;9.27;;;6.07;;
65855;SDS011;52631;42.208;24.656;2023-05-10T00:04:43;9.82;;;6.53;;
65855;SDS011;52631;42.208;24.656;2023-05-10T00:07:09;9.25;;;5.97;;
65855;SDS011;52631;42.208;24.656;2023-05-10T00:09:35;11.23;;;6.45;;
65855;SDS011;52631;42.208;24.656;2023-05-10T00:12:01;9.55;;;6.00;;
65855;SDS011;52631;42.208;24.656;2023-05-10T00:14:26;10.38;;;5.80;;
65855;SDS011;52631;42.208;24.656;2023-05-10T00:16:52;12.80;;;6.50;;
65855;SDS011;52631;42.208;24.656;2023-05-10T00:19:17;10.43;;;5.88;;
65855;SDS011;52631;42.208;24.656;2023-05-10T00:21:43;14.05;;;6.22;;
65855;SDS011;52631;42.208;24.656;2023-05-10T00:24:08;13.05;;;6.65;;
65855;SDS011;52631;42.208;24.656;2023-05-10T00:26:34;13.38;;;6.47;;
65855;SDS011;52631;42.208;24.656;2023-05-10T00:28:59;9.82;;;6.10;;
65855;SDS011;52631;42.208;24.656;2023-05-10T00:31:25;11.45;;;6.05;;
65855;SDS011;52631;42.208;24.656;2023-05-10T00:33:51;9.02;;;6.28;;
65855;SDS011;52631;42.208;24.656;2023-05-10T00:36:16;9.30;;;6.10;;
65855;SDS011;52631;42.208;24.656;2023-05-10T00:38:41;12.40;;;5.75;;
65855;SDS011;52631;42.208;24.656;2023-05-10T00:41:07;9.63;;;5.68;;
65855;SDS011;52631;42.208;24.656;2023-05-10T00:43:33;10.68;;;6.35;;
65855;SDS011;52631;42.208;24.656;2023-05-10T00:45:58;10.13;;;5.60;;
65855;SDS011;52631;42.208;24.656;2023-05-10T00:48:24;8.05;;;5.18;;
65855;SDS011;52631;42.208;24.656;2023-05-10T00:50:49;10.43;;;5.03;;
65855;SDS011;52631;42.208;24.656;2023-05-10T00:53:15;11.52;;;5.32;;
65855;SDS011;52631;42.208;24.656;2023-05-10T00:55:41;8.98;;;4.80;;
65855;SDS011;52631;42.208;24.656;2023-05-10T00:58:07;9.25;;;4.88;;
65855;SDS011;52631;42.208;24.656;2023-05-10T01:00:33;10.73;;;4.70;;
65855;SDS011;52631;42.208;24.656;2023-05-10T01:02:59;8.07;;;4.15;;
65855;SDS011;52631;42.208;24.656;2023-05-10T01:05:24;8.95;;;4.50;;
65855;SDS011;52631;42.208;24.656;2023-05-10T01:07:50;8.85;;;4.45;;
65855;SDS011;52631;42.208;24.656;2023-05-10T01:10:16;7.40;;;4.45;;
65855;SDS011;52631;42.208;24.656;2023-05-10T01:12:42;9.88;;;5.50;;
65855;SDS011;52631;42.208;24.656;2023-05-10T01:15:10;10.70;;;5.82;;
65855;SDS011;52631;42.208;24.656;2023-05-10T01:17:36;14.45;;;6.63;;
65855;SDS011;52631;42.208;24.656;2023-05-10T01:20:03;8.65;;;5.72;;
65855;SDS011;52631;42.208;24.656;2023-05-10T01:36:08;8.88;;;5.72;;
65855;SDS011;52631;42.208;24.656;2023-05-10T01:38:42;9.80;;;6.35;;
65855;SDS011;52631;42.208;24.656;2023-05-10T01:43:55;12.48;;;7.20;;
65855;SDS011;52631;42.208;24.656;2023-05-10T01:46:35;9.70;;;6.18;;
65855;SDS011;52631;42.208;24.656;2023-05-10T01:52:06;8.98;;;5.80;;
65855;SDS011;52631;42.208;24.656;2023-05-10T01:54:33;10.77;;;5.18;;
65855;SDS011;52631;42.208;24.656;2023-05-10T01:57:02;8.27;;;5.63;;
65855;SDS011;52631;42.208;24.656;2023-05-10T01:59:31;12.82;;;5.35;;
65855;SDS011;52631;42.208;24.656;2023-05-10T02:02:01;9.52;;;5.85;;
65855;SDS011;52631;42.208;24.656;2023-05-10T02:04:27;8.98;;;5.43;;
65855;SDS011;52631;42.208;24.656;2023-05-10T02:06:53;10.15;;;5.30;;
65855;SDS011;52631;42.208;24.656;2023-05-10T02:09:19;12.13;;;5.65;;
65855;SDS011;52631;42.208;24.656;2023-05-10T02:11:45;11.52;;;5.95;;
65855;SDS011;52631;42.208;24.656;2023-05-10T02:14:12;9.80;;;5.75;;
65855;SDS011;52631;42.208;24.656;2023-05-10T02:16:39;11.98;;;5.88;;
65855;SDS011;52631;42.208;24.656;2023-05-10T02:19:04;8.05;;;5.20;;
65855;SDS011;52631;42.208;24.656;2023-05-10T02:21:31;12.10;;;5.93;;
65855;SDS011;52631;42.208;24.656;2023-05-10T02:23:57;8.55;;;5.13;;
65855;SDS011;52631;42.208;24.656;2023-05-10T02:26:24;10.25;;;4.93;;
65855;SDS011;52631;42.208;24.656;2023-05-10T02:28:51;7.45;;;5.10;;
65855;SDS011;52631;42.208;24.656;2023-05-10T02:31:18;10.55;;;5.85;;
65855;SDS011;52631;42.208;24.656;2023-05-10T02:33:44;8.82;;;5.50;;
65855;SDS011;52631;42.208;24.656;2023-05-10T02:36:09;12.77;;;5.55;;
65855;SDS011;52631;42.208;24.656;2023-05-10T02:38:35;10.77;;;6.20;;
65855;SDS011;52631;42.208;24.656;2023-05-10T02:41:01;9.57;;;5.60;;
65855;SDS011;52631;42.208;24.656;2023-05-10T02:43:27;8.93;;;5.50;;
65855;SDS011;52631;42.208;24.656;2023-05-10T02:45:55;9.52;;;5.38;;
65855;SDS011;52631;42.208;24.656;2023-05-10T02:48:21;8.98;;;6.03;;
65855;SDS011;52631;42.208;24.656;2023-05-10T02:50:46;9.95;;;6.20;;
65855;SDS011;52631;42.208;24.656;2023-05-10T02:53:18;9.20;;;5.53;;
65855;SDS011;52631;42.208;24.656;2023-05-10T02:55:48;10.68;;;6.15;;
65855;SDS011;52631;42.208;24.656;2023-05-10T02:58:16;10.20;;;5.63;;
65855;SDS011;52631;42.208;24.656;2023-05-10T03:00:44;10.57;;;5.15;;
65855;SDS011;52631;42.208;24.656;2023-05-10T03:03:10;10.02;;;5.22;;
65855;SDS011;52631;42.208;24.656;2023-05-10T03:05:36;11.85;;;6.10;;
65855;SDS011;52631;42.208;24.656;2023-05-10T03:08:01;7.88;;;5.47;;
65855;SDS011;52631;42.208;24.656;2023-05-10T03:10:29;13.82;;;6.05;;
65855;SDS011;52631;42.208;24.656;2023-05-10T03:18:28;8.32;;;5.03;;
65855;SDS011;52631;42.208;24.656;2023-05-10T03:20:57;9.93;;;5.63;;
65855;SDS011;52631;42.208;24.656;2023-05-10T03:23:35;10.43;;;5.72;;
65855;SDS011;52631;42.208;24.656;2023-05-10T03:26:04;9.40;;;5.90;;
65855;SDS011;52631;42.208;24.656;2023-05-10T03:28:30;11.27;;;6.05;;
65855;SDS011;52631;42.208;24.656;2023-05-10T03:30:56;9.75;;;5.70;;
65855;SDS011;52631;42.208;24.656;2023-05-10T03:33:23;8.57;;;5.07;;
65855;SDS011;52631;42.208;24.656;2023-05-10T03:35:48;10.52;;;5.95;;
65855;SDS011;52631;42.208;24.656;2023-05-10T03:38:13;8.63;;;5.53;;
65855;SDS011;52631;42.208;24.656;2023-05-10T03:40:39;10.27;;;5.80;;
65855;SDS011;52631;42.208;24.656;2023-05-10T03:43:05;11.05;;;5.45;;
65855;SDS011;52631;42.208;24.656;2023-05-10T03:45:30;9.80;;;5.90;;
65855;SDS011;52631;42.208;24.656;2023-05-10T03:47:59;9.95;;;6.10;;
65855;SDS011;52631;42.208;24.656;2023-05-10T03:50:25;8.35;;;5.75;;
65855;SDS011;52631;42.208;24.656;2023-05-10T03:52:51;10.23;;;5.50;;
65855;SDS011;52631;42.208;24.656;2023-05-10T03:55:16;10.98;;;6.55;;
65855;SDS011;52631;42.208;24.656;2023-05-10T03:57:42;9.32;;;5.28;;
65855;SDS011;52631;42.208;24.656;2023-05-10T04:00:08;10.30;;;6.05;;
65855;SDS011;52631;42.208;24.656;2023-05-10T04:02:34;9.38;;;6.13;;
65855;SDS011;52631;42.208;24.656;2023-05-10T04:05:00;9.95;;;5.40;;
65855;SDS011;52631;42.208;24.656;2023-05-10T04:07:25;11.93;;;6.35;;
65855;SDS011;52631;42.208;24.656;2023-05-10T04:09:51;8.77;;;5.35;;
65855;SDS011;52631;42.208;24.656;2023-05-10T04:12:16;10.35;;;6.18;;
65855;SDS011;52631;42.208;24.656;2023-05-10T04:14:42;10.77;;;6.13;;
65855;SDS011;52631;42.208;24.656;2023-05-10T04:17:07;10.77;;;6.07;;
65855;SDS011;52631;42.208;24.656;2023-05-10T04:19:32;11.07;;;5.68;;
65855;SDS011;52631;42.208;24.656;2023-05-10T04:21:58;10.27;;;5.93;;
65855;SDS011;52631;42.208;24.656;2023-05-10T04:24:24;10.68;;;5.35;;
65855;SDS011;52631;42.208;24.656;2023-05-10T04:26:50;9.45;;;5.75;;
65855;SDS011;52631;42.208;24.656;2023-05-10T04:29:15;10.02;;;5.22;;
65855;SDS011;52631;42.208;24.656;2023-05-10T04:31:41;10.48;;;6.10;;
65855;SDS011;52631;42.208;24.656;2023-05-10T04:34:06;10.68;;;5.93;;
65855;SDS011;52631;42.208;24.656;2023-05-10T04:36:32;10.98;;;5.57;;
65855;SDS011;52631;42.208;24.656;2023-05-10T04:39:00;9.13;;;5.80;;
65855;SDS011;52631;42.208;24.656;2023-05-10T04:41:25;11.45;;;5.78;;
65855;SDS011;52631;42.208;24.656;2023-05-10T04:43:51;11.30;;;5.80;;
65855;SDS011;52631;42.208;24.656;2023-05-10T04:46:16;9.20;;;5.68;;
65855;SDS011;52631;42.208;24.656;2023-05-10T04:48:42;9.80;;;6.15;;
65855;SDS011;52631;42.208;24.656;2023-05-10T04:51:07;9.85;;;4.95;;
65855;SDS011;52631;42.208;24.656;2023-05-10T04:53:33;8.35;;;5.03;;
65855;SDS011;52631;42.208;24.656;2023-05-10T04:55:58;10.63;;;5.80;;
65855;SDS011;52631;42.208;24.656;2023-05-10T04:58:24;10.40;;;5.30;;
65855;SDS011;52631;42.208;24.656;2023-05-10T05:00:49;7.57;;;5.00;;
65855;SDS011;52631;42.208;24.656;2023-05-10T05:03:15;11.65;;;5.43;;
65855;SDS011;52631;42.208;24.656;2023-05-10T05:05:40;9.68;;;5.35;;
65855;SDS011;52631;42.208;24.656;2023-05-10T05:08:06;10.38;;;5.78;;
65855;SDS011;52631;42.208;24.656;2023-05-10T05:10:31;11.65;;;6.18;;
65855;SDS011;52631;42.208;24.656;2023-05-10T05:12:57;11.75;;;7.40;;
65855;SDS011;52631;42.208;24.656;2023-05-10T05:15:22;11.68;;;6.20;;
65855;SDS011;52631;42.208;24.656;2023-05-10T05:17:48;10.73;;;5.90;;
65855;SDS011;52631;42.208;24.656;2023-05-10T05:20:13;10.85;;;5.53;;
65855;SDS011;52631;42.208;24.656;2023-05-10T05:22:39;8.45;;;5.57;;
65855;SDS011;52631;42.208;24.656;2023-05-10T05:25:05;8.15;;;5.20;;
65855;SDS011;52631;42.208;24.656;2023-05-10T05:27:31;6.63;;;4.60;;
65855;SDS011;52631;42.208;24.656;2023-05-10T05:29:56;10.48;;;4.63;;
65855;SDS011;52631;42.208;24.656;2023-05-10T05:32:22;7.60;;;4.65;;
65855;SDS011;52631;42.208;24.656;2023-05-10T05:34:48;10.32;;;4.93;;
65855;SDS011;52631;42.208;24.656;2023-05-10T05:37:14;7.32;;;5.00;;
65855;SDS011;52631;42.208;24.656;2023-05-10T05:39:41;8.38;;;4.90;;
65855;SDS011;52631;42.208;24.656;2023-05-10T05:42:07;7.53;;;4.88;;
65855;SDS011;52631;42.208;24.656;2023-05-10T05:44:33;10.43;;;5.28;;
65855;SDS011;52631;42.208;24.656;2023-05-10T05:46:59;10.20;;;5.03;;
65855;SDS011;52631;42.208;24.656;2023-05-10T05:49:24;11.38;;;5.95;;
65855;SDS011;52631;42.208;24.656;2023-05-10T05:51:50;8.65;;;5.85;;
65855;SDS011;52631;42.208;24.656;2023-05-10T05:54:15;9.88;;;5.88;;
65855;SDS011;52631;42.208;24.656;2023-05-10T05:56:41;9.80;;;5.88;;
65855;SDS011;52631;42.208;24.656;2023-05-10T05:59:06;11.27;;;6.40;;
65855;SDS011;52631;42.208;24.656;2023-05-10T06:01:32;10.48;;;6.45;;
65855;SDS011;52631;42.208;24.656;2023-05-10T06:03:57;12.15;;;7.03;;
65855;SDS011;52631;42.208;24.656;2023-05-10T06:06:23;10.25;;;6.65;;
65855;SDS011;52631;42.208;24.656;2023-05-10T06:08:48;10.63;;;6.50;;
65855;SDS011;52631;42.208;24.656;2023-05-10T06:11:13;10.57;;;6.28;;
65855;SDS011;52631;42.208;24.656;2023-05-10T06:13:39;9.18;;;6.32;;
65855;SDS011;52631;42.208;24.656;2023-05-10T06:16:05;10.80;;;6.05;;
65855;SDS011;52631;42.208;24.656;2023-05-10T06:18:30;12.00;;;5.90;;
65855;SDS011;52631;42.208;24.656;2023-05-10T06:20:56;11.82;;;7.00;;
65855;SDS011;52631;42.208;24.656;2023-05-10T06:23:22;11.07;;;7.47;;
65855;SDS011;52631;42.208;24.656;2023-05-10T06:25:47;12.32;;;6.97;;
65855;SDS011;52631;42.208;24.656;2023-05-10T06:28:13;10.85;;;7.03;;
65855;SDS011;52631;42.208;24.656;2023-05-10T06:30:38;12.90;;;7.32;;
65855;SDS011;52631;42.208;24.656;2023-05-10T06:33:04;11.38;;;6.57;;
65855;SDS011;52631;42.208;24.656;2023-05-10T06:35:29;9.77;;;6.72;;
65855;SDS011;52631;42.208;24.656;2023-05-10T06:37:57;10.27;;;6.25;;
65855;SDS011;52631;42.208;24.656;2023-05-10T06:40:22;14.25;;;6.35;;
65855;SDS011;52631;42.208;24.656;2023-05-10T06:42:47;10.50;;;6.93;;
65855;SDS011;52631;42.208;24.656;2023-05-10T06:45:13;13.85;;;6.47;;
65855;SDS011;52631;42.208;24.656;2023-05-10T06:47:40;16.42;;;7.35;;
65855;SDS011;52631;42.208;24.656;2023-05-10T06:50:06;10.68;;;6.57;;
65855;SDS011;52631;42.208;24.656;2023-05-10T06:52:32;11.13;;;7.07;;
65855;SDS011;52631;42.208;24.656;2023-05-10T06:54:58;11.77;;;7.10;;
65855;SDS011;52631;42.208;24.656;2023-05-10T06:57:23;11.73;;;6.93;;
65855;SDS011;52631;42.208;24.656;2023-05-10T06:59:49;9.32;;;6.20;;
65855;SDS011;52631;42.208;24.656;2023-05-10T07:02:15;8.38;;;5.93;;
65855;SDS011;52631;42.208;24.656;2023-05-10T07:04:41;9.27;;;6.68;;
65855;SDS011;52631;42.208;24.656;2023-05-10T07:07:06;10.70;;;6.13;;
65855;SDS011;52631;42.208;24.656;2023-05-10T07:09:32;8.07;;;5.97;;
65855;SDS011;52631;42.208;24.656;2023-05-10T07:11:57;9.48;;;5.80;;
65855;SDS011;52631;42.208;24.656;2023-05-10T07:14:23;11.25;;;5.50;;
65855;SDS011;52631;42.208;24.656;2023-05-10T07:16:48;10.55;;;5.40;;
65855;SDS011;52631;42.208;24.656;2023-05-10T07:19:14;8.27;;;5.18;;
65855;SDS011;52631;42.208;24.656;2023-05-10T07:21:39;8.05;;;4.88;;
65855;SDS011;52631;42.208;24.656;2023-05-10T07:24:07;9.48;;;4.70;;
65855;SDS011;52631;42.208;24.656;2023-05-10T07:26:33;10.60;;;5.15;;
65855;SDS011;52631;42.208;24.656;2023-05-10T07:28:58;6.28;;;4.72;;
65855;SDS011;52631;42.208;24.656;2023-05-10T07:31:24;9.35;;;4.90;;
65855;SDS011;52631;42.208;24.656;2023-05-10T07:33:49;8.57;;;5.25;;
65855;SDS011;52631;42.208;24.656;2023-05-10T07:36:15;7.55;;;4.70;;
65855;SDS011;52631;42.208;24.656;2023-05-10T07:38:40;7.95;;;4.20;;
65855;SDS011;52631;42.208;24.656;2023-05-10T07:41:05;8.18;;;3.80;;
65855;SDS011;52631;42.208;24.656;2023-05-10T07:43:31;6.38;;;4.10;;
65855;SDS011;52631;42.208;24.656;2023-05-10T07:45:56;9.02;;;4.38;;
65855;SDS011;52631;42.208;24.656;2023-05-10T07:48:22;8.77;;;5.10;;
65855;SDS011;52631;42.208;24.656;2023-05-10T07:50:48;6.55;;;4.00;;
65855;SDS011;52631;42.208;24.656;2023-05-10T07:53:13;6.13;;;3.85;;
65855;SDS011;52631;42.208;24.656;2023-05-10T07:55:39;6.57;;;3.80;;
65855;SDS011;52631;42.208;24.656;2023-05-10T07:58:04;7.65;;;4.15;;
65855;SDS011;52631;42.208;24.656;2023-05-10T08:00:29;5.20;;;3.75;;
65855;SDS011;52631;42.208;24.656;2023-05-10T08:02:55;8.75;;;4.07;;
65855;SDS011;52631;42.208;24.656;2023-05-10T08:05:20;7.57;;;3.80;;
65855;SDS011;52631;42.208;24.656;2023-05-10T08:07:46;5.43;;;3.67;;
65855;SDS011;52631;42.208;24.656;2023-05-10T08:10:11;6.72;;;3.38;;
65855;SDS011;52631;42.208;24.656;2023-05-10T08:12:37;5.90;;;3.85;;
65855;SDS011;52631;42.208;24.656;2023-05-10T08:15:03;7.70;;;4.20;;
65855;SDS011;52631;42.208;24.656;2023-05-10T08:17:29;8.18;;;4.00;;
65855;SDS011;52631;42.208;24.656;2023-05-10T08:19:54;8.52;;;3.80;;
65855;SDS011;52631;42.208;24.656;2023-05-10T08:22:20;5.78;;;3.90;;
65855;SDS011;52631;42.208;24.656;2023-05-10T08:24:45;7.00;;;3.88;;
65855;SDS011;52631;42.208;24.656;2023-05-10T08:27:11;6.57;;;4.15;;
65855;SDS011;52631;42.208;24.656;2023-05-10T08:29:37;7.53;;;4.18;;
65855;SDS011;52631;42.208;24.656;2023-05-10T08:32:02;8.27;;;3.85;;
65855;SDS011;52631;42.208;24.656;2023-05-10T08:34:28;5.90;;;3.88;;
65855;SDS011;52631;42.208;24.656;2023-05-10T08:36:54;7.80;;;3.80;;
65855;SDS011;52631;42.208;24.656;2023-05-10T08:39:19;6.22;;;3.75;;
65855;SDS011;52631;42.208;24.656;2023-05-10T08:41:45;7.63;;;4.20;;
65855;SDS011;52631;42.208;24.656;2023-05-10T08:44:12;6.28;;;4.03;;
65855;SDS011;52631;42.208;24.656;2023-05-10T08:46:37;8.40;;;4.70;;
65855;SDS011;52631;42.208;24.656;2023-05-10T08:51:35;6.38;;;3.67;;
65855;SDS011;52631;42.208;24.656;2023-05-10T08:54:02;6.40;;;4.03;;
65855;SDS011;52631;42.208;24.656;2023-05-10T08:56:28;5.32;;;3.55;;
65855;SDS011;52631;42.208;24.656;2023-05-10T08:58:54;6.88;;;4.35;;
65855;SDS011;52631;42.208;24.656;2023-05-10T09:01:20;6.63;;;3.92;;
65855;SDS011;52631;42.208;24.656;2023-05-10T09:03:46;7.88;;;3.85;;
65855;SDS011;52631;42.208;24.656;2023-05-10T09:06:12;8.05;;;4.57;;
65855;SDS011;52631;42.208;24.656;2023-05-10T09:08:38;7.32;;;4.00;;
65855;SDS011;52631;42.208;24.656;2023-05-10T09:11:05;6.07;;;3.83;;
65855;SDS011;52631;42.208;24.656;2023-05-10T09:13:31;7.07;;;3.72;;
65855;SDS011;52631;42.208;24.656;2023-05-10T09:15:57;5.13;;;3.40;;
65855;SDS011;52631;42.208;24.656;2023-05-10T09:18:23;7.70;;;3.60;;
65855;SDS011;52631;42.208;24.656;2023-05-10T09:20:48;5.85;;;3.80;;
65855;SDS011;52631;42.208;24.656;2023-05-10T09:23:14;8.30;;;4.10;;
65855;SDS011;52631;42.208;24.656;2023-05-10T09:25:41;6.80;;;4.10;;
65855;SDS011;52631;42.208;24.656;2023-05-10T09:28:06;6.35;;;4.13;;
65855;SDS011;52631;42.208;24.656;2023-05-10T09:30:33;9.93;;;4.97;;
65855;SDS011;52631;42.208;24.656;2023-05-10T09:32:59;7.00;;;4.40;;
65855;SDS011;52631;42.208;24.656;2023-05-10T09:35:26;6.53;;;4.15;;
65855;SDS011;52631;42.208;24.656;2023-05-10T09:37:54;6.03;;;4.00;;
65855;SDS011;52631;42.208;24.656;2023-05-10T09:42:51;6.25;;;3.88;;
65855;SDS011;52631;42.208;24.656;2023-05-10T09:45:21;6.45;;;3.80;;
65855;SDS011;52631;42.208;24.656;2023-05-10T09:47:48;6.90;;;3.67;;
65855;SDS011;52631;42.208;24.656;2023-05-10T09:50:13;6.95;;;4.03;;
65855;SDS011;52631;42.208;24.656;2023-05-10T09:52:45;5.53;;;3.63;;
65855;SDS011;52631;42.208;24.656;2023-05-10T09:55:16;5.22;;;3.55;;
65855;SDS011;52631;42.208;24.656;2023-05-10T09:57:42;6.88;;;3.80;;
65855;SDS011;52631;42.208;24.656;2023-05-10T10:00:08;9.00;;;3.85;;
65855;SDS011;52631;42.208;24.656;2023-05-10T10:02:37;6.93;;;3.47;;
65855;SDS011;52631;42.208;24.656;2023-05-10T10:05:04;6.53;;;3.90;;
65855;SDS011;52631;42.208;24.656;2023-05-10T10:07:31;5.97;;;4.00;;
65855;SDS011;52631;42.208;24.656;2023-05-10T10:09:57;5.97;;;4.20;;
65855;SDS011;52631;42.208;24.656;2023-05-10T10:12:24;6.55;;;4.43;;
65855;SDS011;52631;42.208;24.656;2023-05-10T10:14:50;5.97;;;3.75;;
65855;SDS011;52631;42.208;24.656;2023-05-10T10:17:16;7.75;;;3.80;;
65855;SDS011;52631;42.208;24.656;2023-05-10T10:19:42;4.28;;;3.10;;
65855;SDS011;52631;42.208;24.656;2023-05-10T10:22:07;6.10;;;3.33;;
65855;SDS011;52631;42.208;24.656;2023-05-10T10:24:35;6.13;;;3.35;;
65855;SDS011;52631;42.208;24.656;2023-05-10T10:27:12;5.32;;;3.65;;
65855;SDS011;52631;42.208;24.656;2023-05-10T10:35:10;4.70;;;3.50;;
65855;SDS011;52631;42.208;24.656;2023-05-10T10:37:46;6.18;;;3.75;;
65855;SDS011;52631;42.208;24.656;2023-05-10T10:40:22;9.35;;;3.85;;
65855;SDS011;52631;42.208;24.656;2023-05-10T10:42:55;5.55;;;3.90;;
65855;SDS011;52631;42.208;24.656;2023-05-10T10:45:21;9.98;;;4.53;;
65855;SDS011;52631;42.208;24.656;2023-05-10T10:47:47;5.22;;;4.18;;
65855;SDS011;52631;42.208;24.656;2023-05-10T10:50:13;5.35;;;3.97;;
65855;SDS011;52631;42.208;24.656;2023-05-10T10:52:39;4.70;;;3.60;;
65855;SDS011;52631;42.208;24.656;2023-05-10T10:55:18;4.90;;;3.90;;
65855;SDS011;52631;42.208;24.656;2023-05-10T10:57:54;6.60;;;3.55;;
65855;SDS011;52631;42.208;24.656;2023-05-10T11:03:11;6.97;;;4.85;;
65855;SDS011;52631;42.208;24.656;2023-05-10T11:05:47;5.55;;;3.97;;
65855;SDS011;52631;42.208;24.656;2023-05-10T11:08:29;6.47;;;3.97;;
65855;SDS011;52631;42.208;24.656;2023-05-10T11:13:34;6.85;;;4.00;;
65855;SDS011;52631;42.208;24.656;2023-05-10T11:16:12;5.78;;;4.05;;
65855;SDS011;52631;42.208;24.656;2023-05-10T11:18:38;7.45;;;3.92;;
65855;SDS011;52631;42.208;24.656;2023-05-10T11:21:04;5.93;;;4.32;;
65855;SDS011;52631;42.208;24.656;2023-05-10T11:23:48;6.05;;;4.20;;
65855;SDS011;52631;42.208;24.656;2023-05-10T11:26:21;6.03;;;4.82;;
65855;SDS011;52631;42.208;24.656;2023-05-10T11:28:50;6.80;;;4.88;;
65855;SDS011;52631;42.208;24.656;2023-05-10T11:31:16;6.07;;;4.60;;
65855;SDS011;52631;42.208;24.656;2023-05-10T11:33:43;8.55;;;4.57;;
65855;SDS011;52631;42.208;24.656;2023-05-10T11:36:14;6.65;;;4.85;;
65855;SDS011;52631;42.208;24.656;2023-05-10T11:38:40;6.32;;;4.60;;
65855;SDS011;52631;42.208;24.656;2023-05-10T11:41:08;7.15;;;4.93;;
65855;SDS011;52631;42.208;24.656;2023-05-10T11:46:07;9.80;;;4.57;;
65855;SDS011;52631;42.208;24.656;2023-05-10T11:48:33;7.90;;;4.30;;
65855;SDS011;52631;42.208;24.656;2023-05-10T11:50:58;6.70;;;4.65;;
65855;SDS011;52631;42.208;24.656;2023-05-10T11:53:25;5.57;;;4.35;;
65855;SDS011;52631;42.208;24.656;2023-05-10T11:55:51;5.82;;;4.28;;
65855;SDS011;52631;42.208;24.656;2023-05-10T11:58:17;5.47;;;4.07;;
65855;SDS011;52631;42.208;24.656;2023-05-10T12:00:43;5.68;;;4.15;;
65855;SDS011;52631;42.208;24.656;2023-05-10T12:03:08;5.40;;;4.07;;
65855;SDS011;52631;42.208;24.656;2023-05-10T12:05:35;9.75;;;5.70;;
65855;SDS011;52631;42.208;24.656;2023-05-10T12:08:10;5.72;;;4.82;;
65855;SDS011;52631;42.208;24.656;2023-05-10T12:10:45;10.02;;;5.53;;
65855;SDS011;52631;42.208;24.656;2023-05-10T12:13:11;7.43;;;5.35;;
65855;SDS011;52631;42.208;24.656;2023-05-10T12:15:38;4.72;;;4.22;;
65855;SDS011;52631;42.208;24.656;2023-05-10T12:18:03;5.47;;;4.80;;
65855;SDS011;52631;42.208;24.656;2023-05-10T12:20:30;6.85;;;4.78;;
65855;SDS011;52631;42.208;24.656;2023-05-10T12:22:56;6.53;;;5.22;;
65855;SDS011;52631;42.208;24.656;2023-05-10T12:25:23;6.43;;;5.40;;
65855;SDS011;52631;42.208;24.656;2023-05-10T12:27:50;5.35;;;4.60;;
65855;SDS011;52631;42.208;24.656;2023-05-10T12:30:21;7.68;;;4.88;;
65855;SDS011;52631;42.208;24.656;2023-05-10T12:32:47;6.43;;;4.45;;
65855;SDS011;52631;42.208;24.656;2023-05-10T12:35:12;5.43;;;4.38;;
65855;SDS011;52631;42.208;24.656;2023-05-10T12:37:38;5.63;;;4.20;;
65855;SDS011;52631;42.208;24.656;2023-05-10T12:40:07;6.28;;;4.55;;
65855;SDS011;52631;42.208;24.656;2023-05-10T12:42:33;6.70;;;4.38;;
65855;SDS011;52631;42.208;24.656;2023-05-10T12:45:00;6.65;;;3.95;;
65855;SDS011;52631;42.208;24.656;2023-05-10T12:47:26;6.50;;;4.00;;
65855;SDS011;52631;42.208;24.656;2023-05-10T12:49:51;6.78;;;4.40;;
65855;SDS011;52631;42.208;24.656;2023-05-10T12:52:17;5.35;;;3.92;;
65855;SDS011;52631;42.208;24.656;2023-05-10T12:54:42;4.97;;;3.95;;
65855;SDS011;52631;42.208;24.656;2023-05-10T12:57:08;5.53;;;4.18;;
65855;SDS011;52631;42.208;24.656;2023-05-10T12:59:33;5.38;;;3.30;;
65855;SDS011;52631;42.208;24.656;2023-05-10T13:01:58;4.68;;;3.35;;
65855;SDS011;52631;42.208;24.656;2023-05-10T13:04:24;4.05;;;2.90;;
65855;SDS011;52631;42.208;24.656;2023-05-10T13:06:49;5.45;;;3.88;;
65855;SDS011;52631;42.208;24.656;2023-05-10T13:09:15;12.23;;;4.55;;
65855;SDS011;52631;42.208;24.656;2023-05-10T13:11:40;11.80;;;4.57;;
65855;SDS011;52631;42.208;24.656;2023-05-10T13:14:06;8.18;;;5.00;;
65855;SDS011;52631;42.208;24.656;2023-05-10T13:16:31;6.88;;;5.35;;
65855;SDS011;52631;42.208;24.656;2023-05-10T13:18:57;11.02;;;5.35;;
65855;SDS011;52631;42.208;24.656;2023-05-10T13:21:23;7.63;;;5.18;;
65855;SDS011;52631;42.208;24.656;2023-05-10T13:23:50;7.10;;;5.00;;
65855;SDS011;52631;42.208;24.656;2023-05-10T13:26:15;6.93;;;5.28;;
65855;SDS011;52631;42.208;24.656;2023-05-10T13:28:41;7.20;;;5.10;;
65855;SDS011;52631;42.208;24.656;2023-05-10T13:31:06;6.93;;;4.97;;
65855;SDS011;52631;42.208;24.656;2023-05-10T13:33:32;5.78;;;4.00;;
65855;SDS011;52631;42.208;24.656;2023-05-10T13:35:57;9.90;;;4.70;;
65855;SDS011;52631;42.208;24.656;2023-05-10T13:38:23;6.85;;;4.50;;
65855;SDS011;52631;42.208;24.656;2023-05-10T13:40:48;9.77;;;4.75;;
65855;SDS011;52631;42.208;24.656;2023-05-10T13:43:17;6.50;;;4.28;;
65855;SDS011;52631;42.208;24.656;2023-05-10T13:45:43;5.35;;;3.88;;
65855;SDS011;52631;42.208;24.656;2023-05-10T13:48:08;6.28;;;4.30;;
65855;SDS011;52631;42.208;24.656;2023-05-10T13:50:34;6.85;;;4.65;;
65855;SDS011;52631;42.208;24.656;2023-05-10T13:52:59;5.80;;;4.03;;
65855;SDS011;52631;42.208;24.656;2023-05-10T13:58:47;7.32;;;5.60;;
65855;SDS011;52631;42.208;24.656;2023-05-10T14:01:12;7.43;;;5.22;;
65855;SDS011;52631;42.208;24.656;2023-05-10T14:03:38;6.78;;;5.10;;
65855;SDS011;52631;42.208;24.656;2023-05-10T14:06:03;7.80;;;5.43;;
65855;SDS011;52631;42.208;24.656;2023-05-10T14:08:29;8.20;;;5.60;;
65855;SDS011;52631;42.208;24.656;2023-05-10T14:10:54;6.55;;;4.68;;
65855;SDS011;52631;42.208;24.656;2023-05-10T14:13:21;8.70;;;5.45;;
65855;SDS011;52631;42.208;24.656;2023-05-10T14:15:47;7.43;;;4.90;;
65855;SDS011;52631;42.208;24.656;2023-05-10T14:18:12;6.90;;;5.60;;
65855;SDS011;52631;42.208;24.656;2023-05-10T14:20:37;8.13;;;5.40;;
65855;SDS011;52631;42.208;24.656;2023-05-10T14:23:03;7.40;;;4.50;;
65855;SDS011;52631;42.208;24.656;2023-05-10T14:25:28;6.63;;;3.60;;
65855;SDS011;52631;42.208;24.656;2023-05-10T14:27:54;7.70;;;4.07;;
65855;SDS011;52631;42.208;24.656;2023-05-10T14:30:20;8.80;;;4.72;;
65855;SDS011;52631;42.208;24.656;2023-05-10T14:32:45;6.55;;;4.68;;
65855;SDS011;52631;42.208;24.656;2023-05-10T14:35:11;7.03;;;5.13;;
65855;SDS011;52631;42.208;24.656;2023-05-10T14:37:37;8.05;;;5.18;;
65855;SDS011;52631;42.208;24.656;2023-05-10T14:40:03;7.50;;;4.97;;
65855;SDS011;52631;42.208;24.656;2023-05-10T14:42:29;6.30;;;5.30;;
65855;SDS011;52631;42.208;24.656;2023-05-10T14:44:56;9.68;;;5.82;;
65855;SDS011;52631;42.208;24.656;2023-05-10T14:47:21;12.07;;;5.53;;
65855;SDS011;52631;42.208;24.656;2023-05-10T14:49:47;7.53;;;5.57;;
65855;SDS011;52631;42.208;24.656;2023-05-10T14:55:34;7.82;;;5.40;;
65855;SDS011;52631;42.208;24.656;2023-05-10T14:58:00;6.65;;;4.28;;
65855;SDS011;52631;42.208;24.656;2023-05-10T15:00:27;7.57;;;4.88;;
65855;SDS011;52631;42.208;24.656;2023-05-10T15:02:53;6.82;;;5.05;;
65855;SDS011;52631;42.208;24.656;2023-05-10T15:05:19;8.30;;;5.45;;
65855;SDS011;52631;42.208;24.656;2023-05-10T15:07:44;7.53;;;4.78;;
65855;SDS011;52631;42.208;24.656;2023-05-10T15:10:10;5.47;;;4.60;;
65855;SDS011;52631;42.208;24.656;2023-05-10T15:12:36;8.18;;;5.22;;
65855;SDS011;52631;42.208;24.656;2023-05-10T15:15:02;7.15;;;4.90;;
65855;SDS011;52631;42.208;24.656;2023-05-10T15:17:28;8.38;;;4.95;;